Portada
METAR-TAF:

METAR-TAF

Aeroports :

Hassi Messaoud, Algèria

latitud: 31-40N, longitud: 006-09E, altitud: 142 m

Observació

L'informe es va fer fa 25 minuts, a les 19:00 UTC
Vent calma
Temperatura 13°C
Humitat 67%
Pressió 1024 hPa
Visibilitat 10 km o més
sense núvols per sota de 1500 mi sense presència de cumulonimbus.

METAR: DAUH 101900Z 00000KT CAVOK 13/07 Q1024

Hora: 20:25 (19:25 UTC)

Pronòstic

L'informe es va fer fa 2 hores i 25 minuts, a les 17:00 UTC
Pronòstic vàlid del 10 a les 18 UTC al 11 a les 18 UTC
Vent 2 kt amb direcció variable
Visibilitat 10 km o més
sense núvols per sota de 1500 mi sense presència de cumulonimbus.

TAF: DAUH 101700Z 1018/1118 VRB02KT CAVOK

Observacions i pronòstics meteorològics de més de 4000 aeroports (METAR i TAF).

Les estacions disponibles són els punts grocs i vermells al mapa.

Posi el ratolí al punt desitjat per veure el nom de l'estació.

Feu clic per veure les observacions i els pronòstics meteorològics.

Per canviar el mapa: feu clic els botons verds amb una creu de color negre per apropar; al botó verd amb un guió per allunyar la imatge; o en les fletxes verdes per a mapes adjacents.


METAR-TAF: